sensor_id;sensor_type;location;lat;lon;timestamp;P1;durP1;ratioP1;P2;durP2;ratioP2
42586;SDS011;28216;53.362;-6.288;2023-04-03T00:00:17;10.18;;;1.98;;
42586;SDS011;28216;53.362;-6.288;2023-04-03T00:02:55;3.63;;;1.60;;
42586;SDS011;28216;53.362;-6.288;2023-04-03T00:05:27;3.53;;;1.70;;
42586;SDS011;28216;53.362;-6.288;2023-04-03T00:07:52;2.95;;;1.33;;
42586;SDS011;28216;53.362;-6.288;2023-04-03T00:10:22;3.20;;;1.50;;
42586;SDS011;28216;53.362;-6.288;2023-04-03T00:12:48;3.50;;;1.40;;
42586;SDS011;28216;53.362;-6.288;2023-04-03T00:15:18;2.78;;;1.40;;
42586;SDS011;28216;53.362;-6.288;2023-04-03T00:17:51;4.20;;;1.60;;
42586;SDS011;28216;53.362;-6.288;2023-04-03T00:20:34;3.95;;;1.50;;
42586;SDS011;28216;53.362;-6.288;2023-04-03T00:23:03;3.97;;;1.20;;
42586;SDS011;28216;53.362;-6.288;2023-04-03T00:25:31;4.07;;;1.63;;
42586;SDS011;28216;53.362;-6.288;2023-04-03T00:28:02;4.13;;;1.58;;
42586;SDS011;28216;53.362;-6.288;2023-04-03T00:30:29;3.08;;;1.50;;
42586;SDS011;28216;53.362;-6.288;2023-04-03T00:32:57;3.55;;;1.98;;
42586;SDS011;28216;53.362;-6.288;2023-04-03T00:35:26;3.60;;;1.65;;
42586;SDS011;28216;53.362;-6.288;2023-04-03T00:37:54;4.15;;;2.00;;
42586;SDS011;28216;53.362;-6.288;2023-04-03T00:40:33;4.18;;;2.00;;
42586;SDS011;28216;53.362;-6.288;2023-04-03T00:43:23;3.35;;;2.40;;
42586;SDS011;28216;53.362;-6.288;2023-04-03T00:45:54;4.85;;;2.30;;
42586;SDS011;28216;53.362;-6.288;2023-04-03T00:48:28;6.38;;;2.30;;
42586;SDS011;28216;53.362;-6.288;2023-04-03T00:50:57;4.75;;;2.35;;
42586;SDS011;28216;53.362;-6.288;2023-04-03T00:53:31;3.25;;;2.20;;
42586;SDS011;28216;53.362;-6.288;2023-04-03T00:56:12;6.82;;;2.10;;
42586;SDS011;28216;53.362;-6.288;2023-04-03T00:58:58;6.55;;;2.53;;
42586;SDS011;28216;53.362;-6.288;2023-04-03T01:01:28;3.95;;;2.00;;
42586;SDS011;28216;53.362;-6.288;2023-04-03T01:04:01;4.25;;;1.88;;
42586;SDS011;28216;53.362;-6.288;2023-04-03T01:06:35;4.15;;;2.17;;
42586;SDS011;28216;53.362;-6.288;2023-04-03T01:09:04;4.53;;;1.90;;
42586;SDS011;28216;53.362;-6.288;2023-04-03T01:11:30;3.20;;;1.90;;
42586;SDS011;28216;53.362;-6.288;2023-04-03T01:13:58;4.95;;;1.80;;
42586;SDS011;28216;53.362;-6.288;2023-04-03T01:16:26;5.38;;;1.95;;
42586;SDS011;28216;53.362;-6.288;2023-04-03T01:18:55;4.65;;;1.73;;
42586;SDS011;28216;53.362;-6.288;2023-04-03T01:27:04;4.68;;;1.70;;
42586;SDS011;28216;53.362;-6.288;2023-04-03T01:29:37;5.80;;;1.75;;
42586;SDS011;28216;53.362;-6.288;2023-04-03T01:32:05;3.25;;;1.60;;
42586;SDS011;28216;53.362;-6.288;2023-04-03T01:34:31;5.13;;;1.60;;
42586;SDS011;28216;53.362;-6.288;2023-04-03T01:36:57;3.75;;;2.08;;
42586;SDS011;28216;53.362;-6.288;2023-04-03T01:39:25;3.80;;;1.85;;
42586;SDS011;28216;53.362;-6.288;2023-04-03T01:41:53;5.32;;;2.00;;
42586;SDS011;28216;53.362;-6.288;2023-04-03T01:44:19;3.88;;;1.80;;
42586;SDS011;28216;53.362;-6.288;2023-04-03T01:46:50;5.28;;;1.98;;
42586;SDS011;28216;53.362;-6.288;2023-04-03T01:49:15;2.45;;;1.60;;
42586;SDS011;28216;53.362;-6.288;2023-04-03T01:51:44;4.75;;;2.20;;
42586;SDS011;28216;53.362;-6.288;2023-04-03T01:54:20;3.55;;;2.10;;
42586;SDS011;28216;53.362;-6.288;2023-04-03T01:56:45;3.92;;;1.80;;
42586;SDS011;28216;53.362;-6.288;2023-04-03T01:59:13;2.63;;;1.63;;
42586;SDS011;28216;53.362;-6.288;2023-04-03T02:01:41;6.50;;;1.90;;
42586;SDS011;28216;53.362;-6.288;2023-04-03T02:04:08;2.55;;;1.58;;
42586;SDS011;28216;53.362;-6.288;2023-04-03T02:06:34;2.90;;;1.80;;
42586;SDS011;28216;53.362;-6.288;2023-04-03T02:09:00;3.75;;;1.85;;
42586;SDS011;28216;53.362;-6.288;2023-04-03T02:11:28;4.93;;;2.20;;
42586;SDS011;28216;53.362;-6.288;2023-04-03T02:13:56;4.45;;;1.73;;
42586;SDS011;28216;53.362;-6.288;2023-04-03T02:16:22;4.88;;;1.73;;
42586;SDS011;28216;53.362;-6.288;2023-04-03T02:18:47;4.38;;;1.83;;
42586;SDS011;28216;53.362;-6.288;2023-04-03T02:21:15;3.83;;;1.95;;
42586;SDS011;28216;53.362;-6.288;2023-04-03T02:23:41;5.00;;;1.92;;
42586;SDS011;28216;53.362;-6.288;2023-04-03T02:26:08;3.85;;;2.10;;
42586;SDS011;28216;53.362;-6.288;2023-04-03T02:28:36;5.65;;;1.88;;
42586;SDS011;28216;53.362;-6.288;2023-04-03T02:31:02;3.28;;;2.05;;
42586;SDS011;28216;53.362;-6.288;2023-04-03T02:33:29;5.15;;;2.00;;
42586;SDS011;28216;53.362;-6.288;2023-04-03T02:35:55;4.93;;;2.35;;
42586;SDS011;28216;53.362;-6.288;2023-04-03T02:38:22;4.32;;;2.28;;
42586;SDS011;28216;53.362;-6.288;2023-04-03T02:40:51;6.88;;;2.20;;
42586;SDS011;28216;53.362;-6.288;2023-04-03T02:43:17;4.07;;;2.03;;
42586;SDS011;28216;53.362;-6.288;2023-04-03T02:45:42;4.38;;;1.95;;
42586;SDS011;28216;53.362;-6.288;2023-04-03T02:48:08;5.28;;;2.10;;
42586;SDS011;28216;53.362;-6.288;2023-04-03T02:50:34;4.45;;;2.30;;
42586;SDS011;28216;53.362;-6.288;2023-04-03T02:53:00;4.95;;;2.17;;
42586;SDS011;28216;53.362;-6.288;2023-04-03T02:55:25;5.35;;;2.70;;
42586;SDS011;28216;53.362;-6.288;2023-04-03T02:57:58;6.05;;;2.78;;
42586;SDS011;28216;53.362;-6.288;2023-04-03T03:00:23;5.30;;;2.70;;
42586;SDS011;28216;53.362;-6.288;2023-04-03T03:03:00;3.17;;;2.20;;
42586;SDS011;28216;53.362;-6.288;2023-04-03T03:05:26;5.45;;;2.45;;
42586;SDS011;28216;53.362;-6.288;2023-04-03T03:07:52;7.43;;;2.38;;
42586;SDS011;28216;53.362;-6.288;2023-04-03T03:10:21;4.00;;;2.55;;
42586;SDS011;28216;53.362;-6.288;2023-04-03T03:12:47;3.72;;;2.45;;
42586;SDS011;28216;53.362;-6.288;2023-04-03T03:15:14;6.45;;;2.42;;
42586;SDS011;28216;53.362;-6.288;2023-04-03T03:17:42;6.32;;;2.75;;
42586;SDS011;28216;53.362;-6.288;2023-04-03T03:20:10;4.88;;;2.90;;
42586;SDS011;28216;53.362;-6.288;2023-04-03T03:22:39;6.05;;;2.70;;
42586;SDS011;28216;53.362;-6.288;2023-04-03T03:25:04;7.28;;;2.85;;
42586;SDS011;28216;53.362;-6.288;2023-04-03T03:27:32;5.28;;;2.80;;
42586;SDS011;28216;53.362;-6.288;2023-04-03T03:32:46;6.47;;;2.72;;
42586;SDS011;28216;53.362;-6.288;2023-04-03T03:35:12;4.90;;;2.75;;
42586;SDS011;28216;53.362;-6.288;2023-04-03T03:37:45;6.93;;;2.72;;
42586;SDS011;28216;53.362;-6.288;2023-04-03T03:40:11;7.85;;;3.00;;
42586;SDS011;28216;53.362;-6.288;2023-04-03T03:42:39;7.75;;;2.92;;
42586;SDS011;28216;53.362;-6.288;2023-04-03T03:45:08;6.35;;;2.90;;
42586;SDS011;28216;53.362;-6.288;2023-04-03T03:47:34;7.57;;;3.20;;
42586;SDS011;28216;53.362;-6.288;2023-04-03T03:50:03;5.53;;;2.70;;
42586;SDS011;28216;53.362;-6.288;2023-04-03T03:52:29;6.57;;;3.55;;
42586;SDS011;28216;53.362;-6.288;2023-04-03T03:54:56;7.35;;;3.50;;
42586;SDS011;28216;53.362;-6.288;2023-04-03T03:57:22;6.00;;;3.20;;
42586;SDS011;28216;53.362;-6.288;2023-04-03T03:59:50;6.80;;;3.38;;
42586;SDS011;28216;53.362;-6.288;2023-04-03T04:02:17;5.13;;;3.40;;
42586;SDS011;28216;53.362;-6.288;2023-04-03T04:04:43;5.68;;;3.22;;
42586;SDS011;28216;53.362;-6.288;2023-04-03T04:07:08;7.68;;;3.70;;
42586;SDS011;28216;53.362;-6.288;2023-04-03T04:09:34;6.68;;;3.80;;
42586;SDS011;28216;53.362;-6.288;2023-04-03T04:11:59;5.78;;;4.43;;
42586;SDS011;28216;53.362;-6.288;2023-04-03T04:14:25;7.18;;;3.75;;
42586;SDS011;28216;53.362;-6.288;2023-04-03T04:16:52;9.73;;;3.92;;
42586;SDS011;28216;53.362;-6.288;2023-04-03T04:19:18;7.00;;;3.80;;
42586;SDS011;28216;53.362;-6.288;2023-04-03T04:21:43;6.82;;;3.75;;
42586;SDS011;28216;53.362;-6.288;2023-04-03T04:24:09;5.78;;;3.90;;
42586;SDS011;28216;53.362;-6.288;2023-04-03T04:26:35;7.20;;;3.92;;
42586;SDS011;28216;53.362;-6.288;2023-04-03T04:29:00;9.85;;;4.10;;
42586;SDS011;28216;53.362;-6.288;2023-04-03T04:31:26;7.47;;;4.50;;
42586;SDS011;28216;53.362;-6.288;2023-04-03T04:33:54;5.70;;;4.05;;
42586;SDS011;28216;53.362;-6.288;2023-04-03T04:36:22;9.10;;;4.20;;
42586;SDS011;28216;53.362;-6.288;2023-04-03T04:38:47;7.43;;;4.50;;
42586;SDS011;28216;53.362;-6.288;2023-04-03T04:41:13;7.78;;;4.47;;
42586;SDS011;28216;53.362;-6.288;2023-04-03T04:43:38;11.13;;;5.30;;
42586;SDS011;28216;53.362;-6.288;2023-04-03T04:46:05;9.88;;;4.82;;
42586;SDS011;28216;53.362;-6.288;2023-04-03T04:48:33;6.05;;;4.32;;
42586;SDS011;28216;53.362;-6.288;2023-04-03T04:51:00;6.68;;;4.47;;
42586;SDS011;28216;53.362;-6.288;2023-04-03T04:53:25;7.10;;;4.40;;
42586;SDS011;28216;53.362;-6.288;2023-04-03T04:55:51;8.32;;;4.93;;
42586;SDS011;28216;53.362;-6.288;2023-04-03T04:58:17;7.10;;;5.03;;
42586;SDS011;28216;53.362;-6.288;2023-04-03T05:00:45;8.65;;;5.15;;
42586;SDS011;28216;53.362;-6.288;2023-04-03T05:03:11;8.70;;;5.35;;
42586;SDS011;28216;53.362;-6.288;2023-04-03T05:05:36;7.40;;;4.80;;
42586;SDS011;28216;53.362;-6.288;2023-04-03T05:08:02;7.78;;;4.82;;
42586;SDS011;28216;53.362;-6.288;2023-04-03T05:10:28;7.00;;;4.90;;
42586;SDS011;28216;53.362;-6.288;2023-04-03T05:12:54;6.05;;;4.38;;
42586;SDS011;28216;53.362;-6.288;2023-04-03T05:15:20;5.22;;;4.55;;
42586;SDS011;28216;53.362;-6.288;2023-04-03T05:17:45;6.63;;;4.80;;
42586;SDS011;28216;53.362;-6.288;2023-04-03T05:20:11;7.85;;;5.13;;
42586;SDS011;28216;53.362;-6.288;2023-04-03T05:22:37;9.68;;;4.90;;
42586;SDS011;28216;53.362;-6.288;2023-04-03T05:25:03;8.23;;;4.70;;
42586;SDS011;28216;53.362;-6.288;2023-04-03T05:27:29;6.97;;;4.78;;
42586;SDS011;28216;53.362;-6.288;2023-04-03T05:29:54;10.50;;;4.70;;
42586;SDS011;28216;53.362;-6.288;2023-04-03T05:32:20;6.25;;;4.60;;
42586;SDS011;28216;53.362;-6.288;2023-04-03T05:34:46;9.15;;;4.88;;
42586;SDS011;28216;53.362;-6.288;2023-04-03T05:37:12;6.38;;;4.60;;
42586;SDS011;28216;53.362;-6.288;2023-04-03T05:39:38;6.80;;;4.63;;
42586;SDS011;28216;53.362;-6.288;2023-04-03T05:42:05;7.25;;;4.78;;
42586;SDS011;28216;53.362;-6.288;2023-04-03T05:44:32;6.55;;;4.90;;
42586;SDS011;28216;53.362;-6.288;2023-04-03T05:46:58;8.40;;;4.88;;
42586;SDS011;28216;53.362;-6.288;2023-04-03T05:49:23;6.60;;;4.55;;
42586;SDS011;28216;53.362;-6.288;2023-04-03T05:51:49;8.52;;;4.93;;
42586;SDS011;28216;53.362;-6.288;2023-04-03T05:54:20;8.32;;;4.72;;
42586;SDS011;28216;53.362;-6.288;2023-04-03T05:56:52;8.02;;;4.88;;
42586;SDS011;28216;53.362;-6.288;2023-04-03T05:59:18;6.97;;;4.90;;
42586;SDS011;28216;53.362;-6.288;2023-04-03T06:01:44;8.68;;;5.07;;
42586;SDS011;28216;53.362;-6.288;2023-04-03T06:04:10;10.60;;;5.05;;
42586;SDS011;28216;53.362;-6.288;2023-04-03T06:06:48;11.40;;;5.10;;
42586;SDS011;28216;53.362;-6.288;2023-04-03T06:09:14;9.38;;;5.82;;
42586;SDS011;28216;53.362;-6.288;2023-04-03T06:11:41;10.57;;;5.60;;
42586;SDS011;28216;53.362;-6.288;2023-04-03T06:14:07;9.75;;;5.38;;
42586;SDS011;28216;53.362;-6.288;2023-04-03T06:16:33;14.05;;;6.65;;
42586;SDS011;28216;53.362;-6.288;2023-04-03T06:18:58;11.15;;;6.80;;
42586;SDS011;28216;53.362;-6.288;2023-04-03T06:21:24;15.02;;;7.05;;
42586;SDS011;28216;53.362;-6.288;2023-04-03T06:23:59;13.25;;;8.02;;
42586;SDS011;28216;53.362;-6.288;2023-04-03T06:26:25;14.25;;;8.02;;
42586;SDS011;28216;53.362;-6.288;2023-04-03T06:28:53;16.38;;;8.38;;
42586;SDS011;28216;53.362;-6.288;2023-04-03T06:31:18;17.60;;;8.52;;
42586;SDS011;28216;53.362;-6.288;2023-04-03T06:33:45;13.27;;;8.25;;
42586;SDS011;28216;53.362;-6.288;2023-04-03T06:36:13;18.33;;;8.93;;
42586;SDS011;28216;53.362;-6.288;2023-04-03T06:38:43;14.13;;;8.77;;
42586;SDS011;28216;53.362;-6.288;2023-04-03T06:41:09;13.80;;;8.25;;
42586;SDS011;28216;53.362;-6.288;2023-04-03T06:43:34;15.57;;;8.32;;
42586;SDS011;28216;53.362;-6.288;2023-04-03T06:46:00;16.85;;;9.20;;
42586;SDS011;28216;53.362;-6.288;2023-04-03T06:48:28;18.60;;;8.18;;
42586;SDS011;28216;53.362;-6.288;2023-04-03T06:50:56;17.48;;;9.48;;
42586;SDS011;28216;53.362;-6.288;2023-04-03T06:53:22;18.80;;;9.02;;
42586;SDS011;28216;53.362;-6.288;2023-04-03T06:55:48;18.85;;;7.72;;
42586;SDS011;28216;53.362;-6.288;2023-04-03T06:58:17;15.32;;;8.30;;
42586;SDS011;28216;53.362;-6.288;2023-04-03T07:01:08;19.85;;;7.38;;
42586;SDS011;28216;53.362;-6.288;2023-04-03T07:03:40;14.97;;;6.43;;
42586;SDS011;28216;53.362;-6.288;2023-04-03T07:06:09;14.65;;;6.03;;
42586;SDS011;28216;53.362;-6.288;2023-04-03T07:08:37;15.13;;;6.47;;
42586;SDS011;28216;53.362;-6.288;2023-04-03T07:11:15;17.60;;;8.68;;
42586;SDS011;28216;53.362;-6.288;2023-04-03T07:16:47;16.95;;;8.63;;
42586;SDS011;28216;53.362;-6.288;2023-04-03T07:19:15;15.15;;;6.85;;
42586;SDS011;28216;53.362;-6.288;2023-04-03T07:21:41;11.20;;;5.38;;
42586;SDS011;28216;53.362;-6.288;2023-04-03T07:24:09;14.15;;;6.15;;
42586;SDS011;28216;53.362;-6.288;2023-04-03T07:26:35;15.13;;;7.47;;
42586;SDS011;28216;53.362;-6.288;2023-04-03T07:29:01;13.15;;;5.32;;
42586;SDS011;28216;53.362;-6.288;2023-04-03T07:31:33;11.15;;;5.13;;
42586;SDS011;28216;53.362;-6.288;2023-04-03T07:33:59;12.93;;;5.15;;
42586;SDS011;28216;53.362;-6.288;2023-04-03T07:39:26;13.38;;;6.22;;
42586;SDS011;28216;53.362;-6.288;2023-04-03T07:42:04;16.50;;;5.10;;
42586;SDS011;28216;53.362;-6.288;2023-04-03T07:44:29;10.70;;;5.07;;
42586;SDS011;28216;53.362;-6.288;2023-04-03T07:46:56;13.95;;;5.65;;
42586;SDS011;28216;53.362;-6.288;2023-04-03T07:49:21;16.25;;;6.97;;
42586;SDS011;28216;53.362;-6.288;2023-04-03T07:51:49;14.18;;;5.70;;
42586;SDS011;28216;53.362;-6.288;2023-04-03T07:54:14;31.60;;;15.40;;
42586;SDS011;28216;53.362;-6.288;2023-04-03T07:56:40;18.35;;;8.32;;
42586;SDS011;28216;53.362;-6.288;2023-04-03T07:59:08;17.05;;;7.03;;
42586;SDS011;28216;53.362;-6.288;2023-04-03T08:01:43;16.40;;;6.35;;
42586;SDS011;28216;53.362;-6.288;2023-04-03T08:04:09;16.35;;;6.55;;
42586;SDS011;28216;53.362;-6.288;2023-04-03T08:06:35;16.67;;;8.30;;
42586;SDS011;28216;53.362;-6.288;2023-04-03T08:09:02;13.77;;;5.20;;
42586;SDS011;28216;53.362;-6.288;2023-04-03T08:11:28;12.35;;;5.20;;
42586;SDS011;28216;53.362;-6.288;2023-04-03T08:13:55;12.65;;;5.65;;
42586;SDS011;28216;53.362;-6.288;2023-04-03T08:16:21;16.92;;;5.75;;
42586;SDS011;28216;53.362;-6.288;2023-04-03T08:18:54;17.65;;;7.13;;
42586;SDS011;28216;53.362;-6.288;2023-04-03T08:21:20;20.63;;;6.85;;
42586;SDS011;28216;53.362;-6.288;2023-04-03T08:23:49;19.38;;;7.82;;
42586;SDS011;28216;53.362;-6.288;2023-04-03T08:26:23;19.67;;;7.28;;
42586;SDS011;28216;53.362;-6.288;2023-04-03T08:28:53;18.88;;;6.35;;
42586;SDS011;28216;53.362;-6.288;2023-04-03T08:31:19;19.10;;;6.45;;
42586;SDS011;28216;53.362;-6.288;2023-04-03T08:33:56;17.63;;;5.80;;
42586;SDS011;28216;53.362;-6.288;2023-04-03T08:36:22;23.33;;;7.55;;
42586;SDS011;28216;53.362;-6.288;2023-04-03T08:38:53;15.32;;;5.57;;
42586;SDS011;28216;53.362;-6.288;2023-04-03T08:41:24;19.20;;;7.25;;
42586;SDS011;28216;53.362;-6.288;2023-04-03T08:43:57;10.70;;;5.18;;
42586;SDS011;28216;53.362;-6.288;2023-04-03T08:52:02;20.48;;;7.18;;
42586;SDS011;28216;53.362;-6.288;2023-04-03T08:54:35;14.77;;;6.22;;
42586;SDS011;28216;53.362;-6.288;2023-04-03T08:57:06;12.13;;;5.05;;
42586;SDS011;28216;53.362;-6.288;2023-04-03T08:59:35;9.45;;;4.60;;
42586;SDS011;28216;53.362;-6.288;2023-04-03T09:02:04;18.85;;;4.88;;
42586;SDS011;28216;53.362;-6.288;2023-04-03T09:04:46;13.80;;;4.60;;
42586;SDS011;28216;53.362;-6.288;2023-04-03T09:07:14;13.75;;;5.90;;
42586;SDS011;28216;53.362;-6.288;2023-04-03T09:09:46;16.77;;;6.07;;
42586;SDS011;28216;53.362;-6.288;2023-04-03T09:22:31;13.80;;;5.38;;
42586;SDS011;28216;53.362;-6.288;2023-04-03T09:25:00;12.65;;;5.43;;
42586;SDS011;28216;53.362;-6.288;2023-04-03T09:27:47;13.93;;;4.00;;
42586;SDS011;28216;53.362;-6.288;2023-04-03T09:30:15;21.30;;;5.65;;
42586;SDS011;28216;53.362;-6.288;2023-04-03T09:32:47;10.48;;;4.97;;
42586;SDS011;28216;53.362;-6.288;2023-04-03T09:35:22;11.15;;;4.50;;
42586;SDS011;28216;53.362;-6.288;2023-04-03T09:37:54;12.35;;;4.80;;
42586;SDS011;28216;53.362;-6.288;2023-04-03T09:40:47;11.52;;;4.22;;
42586;SDS011;28216;53.362;-6.288;2023-04-03T09:49:01;8.90;;;3.90;;
42586;SDS011;28216;53.362;-6.288;2023-04-03T09:56:39;10.85;;;4.35;;
42586;SDS011;28216;53.362;-6.288;2023-04-03T09:59:14;9.90;;;4.38;;
42586;SDS011;28216;53.362;-6.288;2023-04-03T10:01:42;9.98;;;4.10;;
42586;SDS011;28216;53.362;-6.288;2023-04-03T10:04:36;12.15;;;4.43;;
42586;SDS011;28216;53.362;-6.288;2023-04-03T10:07:31;10.77;;;4.20;;
42586;SDS011;28216;53.362;-6.288;2023-04-03T10:12:43;11.15;;;4.22;;
42586;SDS011;28216;53.362;-6.288;2023-04-03T10:15:42;17.45;;;4.57;;
42586;SDS011;28216;53.362;-6.288;2023-04-03T10:29:10;13.95;;;4.40;;
42586;SDS011;28216;53.362;-6.288;2023-04-03T10:44:52;13.25;;;4.25;;
42586;SDS011;28216;53.362;-6.288;2023-04-03T10:47:32;15.32;;;4.93;;
42586;SDS011;28216;53.362;-6.288;2023-04-03T10:57:52;10.75;;;4.20;;
42586;SDS011;28216;53.362;-6.288;2023-04-03T11:00:28;18.00;;;4.47;;
42586;SDS011;28216;53.362;-6.288;2023-04-03T11:03:05;12.50;;;4.10;;
42586;SDS011;28216;53.362;-6.288;2023-04-03T11:11:04;11.35;;;4.15;;
42586;SDS011;28216;53.362;-6.288;2023-04-03T11:13:41;13.07;;;4.22;;
42586;SDS011;28216;53.362;-6.288;2023-04-03T11:16:19;12.23;;;3.92;;
42586;SDS011;28216;53.362;-6.288;2023-04-03T11:19:03;12.20;;;4.18;;
42586;SDS011;28216;53.362;-6.288;2023-04-03T11:21:41;14.88;;;4.47;;
42586;SDS011;28216;53.362;-6.288;2023-04-03T11:24:25;11.65;;;4.18;;
42586;SDS011;28216;53.362;-6.288;2023-04-03T11:26:55;18.63;;;4.57;;
42586;SDS011;28216;53.362;-6.288;2023-04-03T11:29:29;12.40;;;4.40;;
42586;SDS011;28216;53.362;-6.288;2023-04-03T11:35:41;17.27;;;4.93;;
42586;SDS011;28216;53.362;-6.288;2023-04-03T11:38:20;13.05;;;4.28;;
42586;SDS011;28216;53.362;-6.288;2023-04-03T11:40:51;18.85;;;5.18;;
42586;SDS011;28216;53.362;-6.288;2023-04-03T11:43:29;12.07;;;4.38;;
42586;SDS011;28216;53.362;-6.288;2023-04-03T11:46:01;20.02;;;4.93;;
42586;SDS011;28216;53.362;-6.288;2023-04-03T11:50:59;15.95;;;4.55;;
42586;SDS011;28216;53.362;-6.288;2023-04-03T11:53:32;14.70;;;4.40;;
42586;SDS011;28216;53.362;-6.288;2023-04-03T11:56:03;13.45;;;4.95;;
42586;SDS011;28216;53.362;-6.288;2023-04-03T12:04:08;17.80;;;4.45;;
42586;SDS011;28216;53.362;-6.288;2023-04-03T12:09:04;21.15;;;5.63;;
42586;SDS011;28216;53.362;-6.288;2023-04-03T12:11:48;18.13;;;4.68;;
42586;SDS011;28216;53.362;-6.288;2023-04-03T12:14:15;12.48;;;4.28;;
42586;SDS011;28216;53.362;-6.288;2023-04-03T12:22:13;15.07;;;4.10;;
42586;SDS011;28216;53.362;-6.288;2023-04-03T12:24:42;17.15;;;4.60;;
42586;SDS011;28216;53.362;-6.288;2023-04-03T12:48:27;16.15;;;4.38;;
42586;SDS011;28216;53.362;-6.288;2023-04-03T12:50:55;13.85;;;4.22;;
42586;SDS011;28216;53.362;-6.288;2023-04-03T12:53:25;15.52;;;5.30;;
42586;SDS011;28216;53.362;-6.288;2023-04-03T12:56:44;11.15;;;3.72;;
42586;SDS011;28216;53.362;-6.288;2023-04-03T12:58:49;12.75;;;4.90;;
42586;SDS011;28216;53.362;-6.288;2023-04-03T13:01:19;15.52;;;4.43;;
42586;SDS011;28216;53.362;-6.288;2023-04-03T13:03:58;19.02;;;5.10;;
42586;SDS011;28216;53.362;-6.288;2023-04-03T13:06:44;20.60;;;4.78;;
42586;SDS011;28216;53.362;-6.288;2023-04-03T13:09:20;15.38;;;4.68;;
42586;SDS011;28216;53.362;-6.288;2023-04-03T13:12:12;14.25;;;4.63;;
42586;SDS011;28216;53.362;-6.288;2023-04-03T13:14:40;19.55;;;5.15;;
42586;SDS011;28216;53.362;-6.288;2023-04-03T13:17:16;14.40;;;4.45;;
42586;SDS011;28216;53.362;-6.288;2023-04-03T13:19:42;16.73;;;5.32;;
42586;SDS011;28216;53.362;-6.288;2023-04-03T13:24:53;16.65;;;4.57;;
42586;SDS011;28216;53.362;-6.288;2023-04-03T13:27:20;19.15;;;5.82;;
42586;SDS011;28216;53.362;-6.288;2023-04-03T13:29:50;13.13;;;4.30;;
42586;SDS011;28216;53.362;-6.288;2023-04-03T13:32:22;20.08;;;5.90;;
42586;SDS011;28216;53.362;-6.288;2023-04-03T13:34:56;19.98;;;5.43;;
42586;SDS011;28216;53.362;-6.288;2023-04-03T13:37:26;17.75;;;5.13;;
42586;SDS011;28216;53.362;-6.288;2023-04-03T13:40:01;20.55;;;4.90;;
42586;SDS011;28216;53.362;-6.288;2023-04-03T13:42:38;19.35;;;4.75;;
42586;SDS011;28216;53.362;-6.288;2023-04-03T13:45:09;17.25;;;4.53;;
42586;SDS011;28216;53.362;-6.288;2023-04-03T13:48:09;19.70;;;4.85;;
42586;SDS011;28216;53.362;-6.288;2023-04-03T13:54:16;18.42;;;4.95;;
42586;SDS011;28216;53.362;-6.288;2023-04-03T13:56:59;17.27;;;5.07;;
42586;SDS011;28216;53.362;-6.288;2023-04-03T13:59:32;17.20;;;4.38;;
42586;SDS011;28216;53.362;-6.288;2023-04-03T14:02:20;16.73;;;4.20;;
42586;SDS011;28216;53.362;-6.288;2023-04-03T14:07:51;15.45;;;4.47;;
42586;SDS011;28216;53.362;-6.288;2023-04-03T14:10:24;16.30;;;4.28;;
42586;SDS011;28216;53.362;-6.288;2023-04-03T14:12:55;19.10;;;5.70;;
42586;SDS011;28216;53.362;-6.288;2023-04-03T14:15:30;17.25;;;3.88;;
42586;SDS011;28216;53.362;-6.288;2023-04-03T14:18:19;15.50;;;4.22;;
42586;SDS011;28216;53.362;-6.288;2023-04-03T14:20:45;10.07;;;4.10;;
42586;SDS011;28216;53.362;-6.288;2023-04-03T14:23:15;11.98;;;3.65;;
42586;SDS011;28216;53.362;-6.288;2023-04-03T14:25:41;14.00;;;4.05;;
42586;SDS011;28216;53.362;-6.288;2023-04-03T14:28:17;9.55;;;3.65;;
42586;SDS011;28216;53.362;-6.288;2023-04-03T14:30:50;13.80;;;3.60;;
42586;SDS011;28216;53.362;-6.288;2023-04-03T14:33:17;17.17;;;4.10;;
42586;SDS011;28216;53.362;-6.288;2023-04-03T14:35:45;9.65;;;3.53;;
42586;SDS011;28216;53.362;-6.288;2023-04-03T14:38:20;10.30;;;3.67;;
42586;SDS011;28216;53.362;-6.288;2023-04-03T14:40:49;8.15;;;2.97;;
42586;SDS011;28216;53.362;-6.288;2023-04-03T14:43:14;11.52;;;3.50;;
42586;SDS011;28216;53.362;-6.288;2023-04-03T14:45:41;12.90;;;3.60;;
42586;SDS011;28216;53.362;-6.288;2023-04-03T14:48:09;9.27;;;3.80;;
42586;SDS011;28216;53.362;-6.288;2023-04-03T14:50:46;10.95;;;3.03;;
42586;SDS011;28216;53.362;-6.288;2023-04-03T14:53:12;13.52;;;3.30;;
42586;SDS011;28216;53.362;-6.288;2023-04-03T14:55:40;9.25;;;3.25;;
42586;SDS011;28216;53.362;-6.288;2023-04-03T14:58:14;14.20;;;3.17;;
42586;SDS011;28216;53.362;-6.288;2023-04-03T15:00:42;9.15;;;3.50;;
42586;SDS011;28216;53.362;-6.288;2023-04-03T15:03:12;7.55;;;3.33;;
42586;SDS011;28216;53.362;-6.288;2023-04-03T15:05:40;12.23;;;3.38;;
42586;SDS011;28216;53.362;-6.288;2023-04-03T15:08:09;11.05;;;3.85;;
42586;SDS011;28216;53.362;-6.288;2023-04-03T15:10:42;11.02;;;3.15;;
42586;SDS011;28216;53.362;-6.288;2023-04-03T15:13:08;8.18;;;3.28;;
42586;SDS011;28216;53.362;-6.288;2023-04-03T15:15:35;10.55;;;3.20;;
42586;SDS011;28216;53.362;-6.288;2023-04-03T15:18:02;9.77;;;2.95;;
42586;SDS011;28216;53.362;-6.288;2023-04-03T15:20:30;10.90;;;3.13;;
42586;SDS011;28216;53.362;-6.288;2023-04-03T15:22:58;8.43;;;3.05;;
42586;SDS011;28216;53.362;-6.288;2023-04-03T15:25:26;10.25;;;3.13;;
42586;SDS011;28216;53.362;-6.288;2023-04-03T15:27:53;11.32;;;3.10;;
42586;SDS011;28216;53.362;-6.288;2023-04-03T15:30:19;8.00;;;3.03;;
42586;SDS011;28216;53.362;-6.288;2023-04-03T15:32:46;9.23;;;3.45;;
42586;SDS011;28216;53.362;-6.288;2023-04-03T15:35:11;7.38;;;3.17;;
42586;SDS011;28216;53.362;-6.288;2023-04-03T15:37:37;15.02;;;3.38;;
42586;SDS011;28216;53.362;-6.288;2023-04-03T15:40:03;12.77;;;3.20;;
42586;SDS011;28216;53.362;-6.288;2023-04-03T15:42:30;11.77;;;3.58;;
42586;SDS011;28216;53.362;-6.288;2023-04-03T15:44:55;11.95;;;3.50;;
42586;SDS011;28216;53.362;-6.288;2023-04-03T15:47:21;9.32;;;3.85;;
42586;SDS011;28216;53.362;-6.288;2023-04-03T15:49:50;11.82;;;4.35;;
42586;SDS011;28216;53.362;-6.288;2023-04-03T15:52:15;8.25;;;2.80;;
42586;SDS011;28216;53.362;-6.288;2023-04-03T15:54:48;13.57;;;4.35;;
42586;SDS011;28216;53.362;-6.288;2023-04-03T15:57:32;18.27;;;5.40;;
42586;SDS011;28216;53.362;-6.288;2023-04-03T15:59:58;11.57;;;3.55;;
42586;SDS011;28216;53.362;-6.288;2023-04-03T16:02:23;13.57;;;5.05;;
42586;SDS011;28216;53.362;-6.288;2023-04-03T16:04:52;9.88;;;3.35;;
42586;SDS011;28216;53.362;-6.288;2023-04-03T16:07:18;16.83;;;4.97;;
42586;SDS011;28216;53.362;-6.288;2023-04-03T16:09:44;9.40;;;3.38;;
42586;SDS011;28216;53.362;-6.288;2023-04-03T16:12:09;11.82;;;4.20;;
42586;SDS011;28216;53.362;-6.288;2023-04-03T16:14:35;15.82;;;4.45;;
42586;SDS011;28216;53.362;-6.288;2023-04-03T16:17:00;15.68;;;3.50;;
42586;SDS011;28216;53.362;-6.288;2023-04-03T16:19:26;11.18;;;3.80;;
42586;SDS011;28216;53.362;-6.288;2023-04-03T16:21:52;16.25;;;4.60;;
42586;SDS011;28216;53.362;-6.288;2023-04-03T16:24:19;11.68;;;3.97;;
42586;SDS011;28216;53.362;-6.288;2023-04-03T16:26:44;12.18;;;4.07;;
42586;SDS011;28216;53.362;-6.288;2023-04-03T16:29:10;14.10;;;4.00;;
42586;SDS011;28216;53.362;-6.288;2023-04-03T16:31:35;15.95;;;4.25;;
42586;SDS011;28216;53.362;-6.288;2023-04-03T16:34:01;11.57;;;4.05;;
42586;SDS011;28216;53.362;-6.288;2023-04-03T16:36:27;10.68;;;4.18;;
42586;SDS011;28216;53.362;-6.288;2023-04-03T16:38:52;11.52;;;3.92;;
42586;SDS011;28216;53.362;-6.288;2023-04-03T16:41:18;13.10;;;4.22;;
42586;SDS011;28216;53.362;-6.288;2023-04-03T16:43:43;13.35;;;3.97;;
42586;SDS011;28216;53.362;-6.288;2023-04-03T16:46:09;20.20;;;6.15;;
42586;SDS011;28216;53.362;-6.288;2023-04-03T16:48:35;13.52;;;4.10;;
42586;SDS011;28216;53.362;-6.288;2023-04-03T16:51:00;13.60;;;4.13;;
42586;SDS011;28216;53.362;-6.288;2023-04-03T16:53:26;10.60;;;3.80;;